sensor_id;sensor_type;location;lat;lon;timestamp;P1;durP1;ratioP1;P2;durP2;ratioP2
77226;SDS011;66234;47.642;19.144;2023-06-22T00:02:02;8.77;;;4.80;;
77226;SDS011;66234;47.642;19.144;2023-06-22T00:05:04;12.27;;;4.85;;
77226;SDS011;66234;47.642;19.144;2023-06-22T00:08:07;7.68;;;4.60;;
77226;SDS011;66234;47.642;19.144;2023-06-22T00:11:10;8.93;;;4.60;;
77226;SDS011;66234;47.642;19.144;2023-06-22T00:14:13;9.45;;;4.78;;
77226;SDS011;66234;47.642;19.144;2023-06-22T00:17:15;8.07;;;4.88;;
77226;SDS011;66234;47.642;19.144;2023-06-22T00:20:18;12.80;;;4.85;;
77226;SDS011;66234;47.642;19.144;2023-06-22T00:23:20;8.93;;;4.93;;
77226;SDS011;66234;47.642;19.144;2023-06-22T00:26:23;10.77;;;4.90;;
77226;SDS011;66234;47.642;19.144;2023-06-22T00:29:25;7.38;;;4.90;;
77226;SDS011;66234;47.642;19.144;2023-06-22T00:32:31;12.25;;;4.88;;
77226;SDS011;66234;47.642;19.144;2023-06-22T00:35:33;10.68;;;4.90;;
77226;SDS011;66234;47.642;19.144;2023-06-22T00:38:36;8.82;;;5.45;;
77226;SDS011;66234;47.642;19.144;2023-06-22T00:41:43;11.70;;;4.97;;
77226;SDS011;66234;47.642;19.144;2023-06-22T00:44:45;8.75;;;5.25;;
77226;SDS011;66234;47.642;19.144;2023-06-22T00:47:49;8.95;;;4.95;;
77226;SDS011;66234;47.642;19.144;2023-06-22T00:50:55;8.75;;;4.72;;
77226;SDS011;66234;47.642;19.144;2023-06-22T00:53:58;6.93;;;4.70;;
77226;SDS011;66234;47.642;19.144;2023-06-22T00:57:01;9.77;;;5.33;;
77226;SDS011;66234;47.642;19.144;2023-06-22T01:00:04;12.18;;;5.63;;
77226;SDS011;66234;47.642;19.144;2023-06-22T01:03:09;9.13;;;5.25;;
77226;SDS011;66234;47.642;19.144;2023-06-22T01:06:14;7.00;;;5.38;;
77226;SDS011;66234;47.642;19.144;2023-06-22T01:09:22;8.52;;;5.63;;
77226;SDS011;66234;47.642;19.144;2023-06-22T01:12:39;11.00;;;5.43;;
77226;SDS011;66234;47.642;19.144;2023-06-22T01:15:49;9.25;;;4.88;;
77226;SDS011;66234;47.642;19.144;2023-06-22T01:19:00;12.48;;;5.50;;
77226;SDS011;66234;47.642;19.144;2023-06-22T01:22:16;8.63;;;5.90;;
77226;SDS011;66234;47.642;19.144;2023-06-22T01:25:20;10.70;;;6.07;;
77226;SDS011;66234;47.642;19.144;2023-06-22T01:32:03;9.77;;;5.95;;
77226;SDS011;66234;47.642;19.144;2023-06-22T01:35:10;9.48;;;6.32;;
77226;SDS011;66234;47.642;19.144;2023-06-22T01:38:14;10.77;;;5.47;;
77226;SDS011;66234;47.642;19.144;2023-06-22T01:41:17;14.80;;;6.03;;
77226;SDS011;66234;47.642;19.144;2023-06-22T01:44:21;9.23;;;5.30;;
77226;SDS011;66234;47.642;19.144;2023-06-22T01:47:25;10.90;;;5.28;;
77226;SDS011;66234;47.642;19.144;2023-06-22T01:50:29;13.43;;;6.32;;
77226;SDS011;66234;47.642;19.144;2023-06-22T01:53:33;13.10;;;6.00;;
77226;SDS011;66234;47.642;19.144;2023-06-22T01:56:35;10.07;;;6.00;;
77226;SDS011;66234;47.642;19.144;2023-06-22T02:00:01;10.47;;;5.93;;
77226;SDS011;66234;47.642;19.144;2023-06-22T02:03:05;9.85;;;6.28;;
77226;SDS011;66234;47.642;19.144;2023-06-22T02:06:17;13.23;;;5.85;;
77226;SDS011;66234;47.642;19.144;2023-06-22T02:09:28;9.70;;;5.72;;
77226;SDS011;66234;47.642;19.144;2023-06-22T02:12:32;10.23;;;5.68;;
77226;SDS011;66234;47.642;19.144;2023-06-22T02:15:38;11.70;;;5.73;;
77226;SDS011;66234;47.642;19.144;2023-06-22T02:18:47;13.52;;;6.15;;
77226;SDS011;66234;47.642;19.144;2023-06-22T02:21:54;8.95;;;5.57;;
77226;SDS011;66234;47.642;19.144;2023-06-22T02:24:56;12.23;;;5.65;;
77226;SDS011;66234;47.642;19.144;2023-06-22T02:28:00;13.40;;;7.15;;
77226;SDS011;66234;47.642;19.144;2023-06-22T02:31:02;13.97;;;6.20;;
77226;SDS011;66234;47.642;19.144;2023-06-22T02:34:05;8.18;;;5.75;;
77226;SDS011;66234;47.642;19.144;2023-06-22T02:37:07;13.57;;;6.22;;
77226;SDS011;66234;47.642;19.144;2023-06-22T02:40:10;11.00;;;5.80;;
77226;SDS011;66234;47.642;19.144;2023-06-22T02:43:13;12.05;;;6.05;;
77226;SDS011;66234;47.642;19.144;2023-06-22T02:46:15;12.60;;;6.40;;
77226;SDS011;66234;47.642;19.144;2023-06-22T02:49:19;10.18;;;5.90;;
77226;SDS011;66234;47.642;19.144;2023-06-22T02:52:22;15.40;;;6.32;;
77226;SDS011;66234;47.642;19.144;2023-06-22T02:55:25;11.45;;;5.68;;
77226;SDS011;66234;47.642;19.144;2023-06-22T02:58:31;9.70;;;5.88;;
77226;SDS011;66234;47.642;19.144;2023-06-22T03:01:44;10.97;;;5.73;;
77226;SDS011;66234;47.642;19.144;2023-06-22T03:04:53;9.23;;;5.90;;
77226;SDS011;66234;47.642;19.144;2023-06-22T03:07:56;11.50;;;5.53;;
77226;SDS011;66234;47.642;19.144;2023-06-22T03:11:00;13.25;;;5.82;;
77226;SDS011;66234;47.642;19.144;2023-06-22T03:14:02;8.60;;;5.97;;
77226;SDS011;66234;47.642;19.144;2023-06-22T03:17:05;15.30;;;5.10;;
77226;SDS011;66234;47.642;19.144;2023-06-22T03:20:09;13.57;;;5.97;;
77226;SDS011;66234;47.642;19.144;2023-06-22T03:23:15;8.90;;;5.03;;
77226;SDS011;66234;47.642;19.144;2023-06-22T03:26:18;8.48;;;5.53;;
77226;SDS011;66234;47.642;19.144;2023-06-22T03:29:21;11.23;;;5.28;;
77226;SDS011;66234;47.642;19.144;2023-06-22T03:32:24;12.27;;;5.87;;
77226;SDS011;66234;47.642;19.144;2023-06-22T03:35:30;13.38;;;5.47;;
77226;SDS011;66234;47.642;19.144;2023-06-22T03:38:32;8.25;;;5.53;;
77226;SDS011;66234;47.642;19.144;2023-06-22T03:41:35;12.40;;;5.55;;
77226;SDS011;66234;47.642;19.144;2023-06-22T03:44:38;14.00;;;5.75;;
77226;SDS011;66234;47.642;19.144;2023-06-22T03:47:41;14.43;;;5.77;;
77226;SDS011;66234;47.642;19.144;2023-06-22T03:50:43;11.27;;;5.05;;
77226;SDS011;66234;47.642;19.144;2023-06-22T03:53:46;10.95;;;5.53;;
77226;SDS011;66234;47.642;19.144;2023-06-22T03:56:50;10.80;;;5.63;;
77226;SDS011;66234;47.642;19.144;2023-06-22T03:59:53;16.40;;;6.55;;
77226;SDS011;66234;47.642;19.144;2023-06-22T04:02:58;14.97;;;5.47;;
77226;SDS011;66234;47.642;19.144;2023-06-22T04:06:02;9.20;;;6.03;;
77226;SDS011;66234;47.642;19.144;2023-06-22T04:09:05;12.85;;;6.40;;
77226;SDS011;66234;47.642;19.144;2023-06-22T04:12:08;13.20;;;6.22;;
77226;SDS011;66234;47.642;19.144;2023-06-22T04:15:11;12.80;;;5.82;;
77226;SDS011;66234;47.642;19.144;2023-06-22T04:18:14;9.30;;;6.03;;
77226;SDS011;66234;47.642;19.144;2023-06-22T04:21:17;15.93;;;7.22;;
77226;SDS011;66234;47.642;19.144;2023-06-22T04:24:21;13.48;;;7.38;;
77226;SDS011;66234;47.642;19.144;2023-06-22T04:27:24;12.30;;;7.03;;
77226;SDS011;66234;47.642;19.144;2023-06-22T04:30:27;9.55;;;6.50;;
77226;SDS011;66234;47.642;19.144;2023-06-22T04:33:31;13.67;;;6.43;;
77226;SDS011;66234;47.642;19.144;2023-06-22T04:36:37;12.63;;;5.97;;
77226;SDS011;66234;47.642;19.144;2023-06-22T04:39:42;10.68;;;6.35;;
77226;SDS011;66234;47.642;19.144;2023-06-22T04:42:45;20.75;;;6.05;;
77226;SDS011;66234;47.642;19.144;2023-06-22T04:45:54;11.18;;;6.10;;
77226;SDS011;66234;47.642;19.144;2023-06-22T04:48:56;12.70;;;5.97;;
77226;SDS011;66234;47.642;19.144;2023-06-22T04:51:59;11.07;;;5.85;;
77226;SDS011;66234;47.642;19.144;2023-06-22T04:55:03;11.02;;;6.60;;
77226;SDS011;66234;47.642;19.144;2023-06-22T04:58:06;12.70;;;6.05;;
77226;SDS011;66234;47.642;19.144;2023-06-22T05:01:09;9.30;;;5.55;;
77226;SDS011;66234;47.642;19.144;2023-06-22T05:04:12;14.43;;;6.30;;
77226;SDS011;66234;47.642;19.144;2023-06-22T05:07:15;11.15;;;5.72;;
77226;SDS011;66234;47.642;19.144;2023-06-22T05:10:18;11.95;;;5.68;;
77226;SDS011;66234;47.642;19.144;2023-06-22T05:13:22;13.50;;;5.68;;
77226;SDS011;66234;47.642;19.144;2023-06-22T05:16:28;8.32;;;5.25;;
77226;SDS011;66234;47.642;19.144;2023-06-22T05:19:31;14.00;;;5.43;;
77226;SDS011;66234;47.642;19.144;2023-06-22T05:22:36;14.90;;;5.80;;
77226;SDS011;66234;47.642;19.144;2023-06-22T05:25:39;11.23;;;6.05;;
77226;SDS011;66234;47.642;19.144;2023-06-22T05:28:41;13.88;;;6.20;;
77226;SDS011;66234;47.642;19.144;2023-06-22T05:31:44;13.75;;;5.88;;
77226;SDS011;66234;47.642;19.144;2023-06-22T05:34:46;10.70;;;5.77;;
77226;SDS011;66234;47.642;19.144;2023-06-22T05:37:49;11.63;;;6.03;;
77226;SDS011;66234;47.642;19.144;2023-06-22T05:40:51;13.82;;;6.95;;
77226;SDS011;66234;47.642;19.144;2023-06-22T05:43:54;11.82;;;6.00;;
77226;SDS011;66234;47.642;19.144;2023-06-22T05:46:57;12.65;;;5.28;;
77226;SDS011;66234;47.642;19.144;2023-06-22T05:49:59;10.40;;;5.83;;
77226;SDS011;66234;47.642;19.144;2023-06-22T05:53:02;11.25;;;6.68;;
77226;SDS011;66234;47.642;19.144;2023-06-22T05:56:04;10.73;;;6.18;;
77226;SDS011;66234;47.642;19.144;2023-06-22T05:59:07;12.32;;;6.38;;
77226;SDS011;66234;47.642;19.144;2023-06-22T06:02:10;12.40;;;5.13;;
77226;SDS011;66234;47.642;19.144;2023-06-22T06:05:14;11.17;;;5.30;;
77226;SDS011;66234;47.642;19.144;2023-06-22T06:08:17;12.52;;;5.88;;
77226;SDS011;66234;47.642;19.144;2023-06-22T06:11:20;9.00;;;5.15;;
77226;SDS011;66234;47.642;19.144;2023-06-22T06:14:22;10.07;;;5.43;;
77226;SDS011;66234;47.642;19.144;2023-06-22T06:17:25;7.40;;;4.25;;
77226;SDS011;66234;47.642;19.144;2023-06-22T06:20:27;7.93;;;4.47;;
77226;SDS011;66234;47.642;19.144;2023-06-22T06:23:30;10.98;;;4.57;;
77226;SDS011;66234;47.642;19.144;2023-06-22T06:26:33;7.25;;;4.38;;
77226;SDS011;66234;47.642;19.144;2023-06-22T06:29:38;13.93;;;4.50;;
77226;SDS011;66234;47.642;19.144;2023-06-22T06:32:40;11.32;;;4.30;;
77226;SDS011;66234;47.642;19.144;2023-06-22T06:35:44;7.77;;;4.20;;
77226;SDS011;66234;47.642;19.144;2023-06-22T06:38:47;7.95;;;4.13;;
77226;SDS011;66234;47.642;19.144;2023-06-22T06:41:49;12.38;;;5.30;;
77226;SDS011;66234;47.642;19.144;2023-06-22T06:44:54;9.82;;;4.47;;
77226;SDS011;66234;47.642;19.144;2023-06-22T06:47:57;8.90;;;4.43;;
77226;SDS011;66234;47.642;19.144;2023-06-22T06:51:00;11.50;;;3.33;;
77226;SDS011;66234;47.642;19.144;2023-06-22T06:54:02;8.52;;;4.00;;
77226;SDS011;66234;47.642;19.144;2023-06-22T06:57:05;8.57;;;4.05;;
77226;SDS011;66234;47.642;19.144;2023-06-22T07:00:09;6.68;;;2.80;;
77226;SDS011;66234;47.642;19.144;2023-06-22T07:03:14;7.05;;;2.80;;
77226;SDS011;66234;47.642;19.144;2023-06-22T07:06:17;8.73;;;2.87;;
77226;SDS011;66234;47.642;19.144;2023-06-22T07:09:20;8.35;;;3.00;;
77226;SDS011;66234;47.642;19.144;2023-06-22T07:12:22;4.35;;;2.67;;
77226;SDS011;66234;47.642;19.144;2023-06-22T07:15:25;6.20;;;3.10;;
77226;SDS011;66234;47.642;19.144;2023-06-22T07:18:27;6.68;;;2.88;;
77226;SDS011;66234;47.642;19.144;2023-06-22T07:21:30;8.17;;;2.80;;
77226;SDS011;66234;47.642;19.144;2023-06-22T07:24:33;11.40;;;3.17;;
77226;SDS011;66234;47.642;19.144;2023-06-22T07:27:37;6.60;;;2.83;;
77226;SDS011;66234;47.642;19.144;2023-06-22T07:30:46;6.15;;;3.40;;
77226;SDS011;66234;47.642;19.144;2023-06-22T07:33:48;11.65;;;3.45;;
77226;SDS011;66234;47.642;19.144;2023-06-22T07:36:51;5.63;;;2.77;;
77226;SDS011;66234;47.642;19.144;2023-06-22T07:39:53;5.00;;;3.10;;
77226;SDS011;66234;47.642;19.144;2023-06-22T07:43:00;7.80;;;3.55;;
77226;SDS011;66234;47.642;19.144;2023-06-22T07:46:03;9.60;;;4.05;;
77226;SDS011;66234;47.642;19.144;2023-06-22T07:49:06;9.45;;;4.18;;
77226;SDS011;66234;47.642;19.144;2023-06-22T07:52:10;10.83;;;4.00;;
77226;SDS011;66234;47.642;19.144;2023-06-22T07:55:13;8.02;;;3.38;;
77226;SDS011;66234;47.642;19.144;2023-06-22T07:58:20;7.45;;;3.50;;
77226;SDS011;66234;47.642;19.144;2023-06-22T08:01:23;9.10;;;3.33;;
77226;SDS011;66234;47.642;19.144;2023-06-22T08:04:27;9.85;;;4.18;;
77226;SDS011;66234;47.642;19.144;2023-06-22T08:07:31;6.37;;;4.00;;
77226;SDS011;66234;47.642;19.144;2023-06-22T08:10:35;9.95;;;3.85;;
77226;SDS011;66234;47.642;19.144;2023-06-22T08:13:38;9.85;;;3.88;;
77226;SDS011;66234;47.642;19.144;2023-06-22T08:16:41;7.95;;;2.95;;
77226;SDS011;66234;47.642;19.144;2023-06-22T08:19:44;8.40;;;3.70;;
77226;SDS011;66234;47.642;19.144;2023-06-22T08:22:46;6.50;;;3.23;;
77226;SDS011;66234;47.642;19.144;2023-06-22T08:25:49;5.97;;;2.88;;
77226;SDS011;66234;47.642;19.144;2023-06-22T08:28:52;7.50;;;3.10;;
77226;SDS011;66234;47.642;19.144;2023-06-22T08:31:55;8.35;;;3.35;;
77226;SDS011;66234;47.642;19.144;2023-06-22T08:34:58;8.45;;;3.10;;
77226;SDS011;66234;47.642;19.144;2023-06-22T08:38:00;7.50;;;3.20;;
77226;SDS011;66234;47.642;19.144;2023-06-22T08:41:04;5.45;;;2.83;;
77226;SDS011;66234;47.642;19.144;2023-06-22T08:44:06;6.68;;;3.45;;
77226;SDS011;66234;47.642;19.144;2023-06-22T08:47:09;5.47;;;3.00;;
77226;SDS011;66234;47.642;19.144;2023-06-22T08:50:12;5.35;;;3.58;;
77226;SDS011;66234;47.642;19.144;2023-06-22T08:53:15;7.37;;;3.60;;
77226;SDS011;66234;47.642;19.144;2023-06-22T08:56:17;6.90;;;3.55;;
77226;SDS011;66234;47.642;19.144;2023-06-22T08:59:21;4.63;;;2.55;;
77226;SDS011;66234;47.642;19.144;2023-06-22T09:02:27;7.30;;;3.20;;
77226;SDS011;66234;47.642;19.144;2023-06-22T09:05:34;11.70;;;3.95;;
77226;SDS011;66234;47.642;19.144;2023-06-22T09:08:36;8.43;;;3.90;;
77226;SDS011;66234;47.642;19.144;2023-06-22T09:11:39;8.40;;;4.07;;
77226;SDS011;66234;47.642;19.144;2023-06-22T09:14:42;8.27;;;4.00;;
77226;SDS011;66234;47.642;19.144;2023-06-22T09:17:45;11.38;;;4.38;;
77226;SDS011;66234;47.642;19.144;2023-06-22T09:20:49;9.32;;;4.25;;
77226;SDS011;66234;47.642;19.144;2023-06-22T09:23:52;9.60;;;4.17;;
77226;SDS011;66234;47.642;19.144;2023-06-22T09:26:54;7.82;;;4.00;;
77226;SDS011;66234;47.642;19.144;2023-06-22T09:29:57;8.45;;;3.78;;
77226;SDS011;66234;47.642;19.144;2023-06-22T09:33:00;8.15;;;3.83;;
77226;SDS011;66234;47.642;19.144;2023-06-22T09:36:06;8.85;;;4.53;;
77226;SDS011;66234;47.642;19.144;2023-06-22T09:39:12;7.00;;;4.20;;
77226;SDS011;66234;47.642;19.144;2023-06-22T09:42:14;7.32;;;4.32;;
77226;SDS011;66234;47.642;19.144;2023-06-22T09:45:17;11.27;;;5.18;;
77226;SDS011;66234;47.642;19.144;2023-06-22T09:48:19;8.95;;;5.85;;
77226;SDS011;66234;47.642;19.144;2023-06-22T09:51:22;9.38;;;5.00;;
77226;SDS011;66234;47.642;19.144;2023-06-22T09:54:26;10.17;;;4.83;;
77226;SDS011;66234;47.642;19.144;2023-06-22T09:57:28;6.57;;;4.80;;
77226;SDS011;66234;47.642;19.144;2023-06-22T10:00:31;5.78;;;5.03;;
77226;SDS011;66234;47.642;19.144;2023-06-22T10:03:34;11.20;;;5.80;;
77226;SDS011;66234;47.642;19.144;2023-06-22T10:06:37;7.50;;;5.28;;
77226;SDS011;66234;47.642;19.144;2023-06-22T10:09:43;7.80;;;5.07;;
77226;SDS011;66234;47.642;19.144;2023-06-22T10:12:46;9.23;;;6.43;;
77226;SDS011;66234;47.642;19.144;2023-06-22T10:15:50;8.85;;;6.15;;
77226;SDS011;66234;47.642;19.144;2023-06-22T10:18:54;9.77;;;5.78;;
77226;SDS011;66234;47.642;19.144;2023-06-22T10:21:56;13.80;;;5.75;;
77226;SDS011;66234;47.642;19.144;2023-06-22T10:24:59;8.83;;;5.53;;
77226;SDS011;66234;47.642;19.144;2023-06-22T10:28:02;9.98;;;5.97;;
77226;SDS011;66234;47.642;19.144;2023-06-22T10:31:04;7.68;;;5.50;;
77226;SDS011;66234;47.642;19.144;2023-06-22T10:34:07;11.32;;;5.43;;
77226;SDS011;66234;47.642;19.144;2023-06-22T10:37:09;9.38;;;5.43;;
77226;SDS011;66234;47.642;19.144;2023-06-22T10:40:12;9.63;;;5.60;;
77226;SDS011;66234;47.642;19.144;2023-06-22T10:43:16;8.60;;;5.75;;
77226;SDS011;66234;47.642;19.144;2023-06-22T10:46:18;8.43;;;5.55;;
77226;SDS011;66234;47.642;19.144;2023-06-22T10:49:21;7.35;;;5.60;;
77226;SDS011;66234;47.642;19.144;2023-06-22T10:52:23;8.73;;;5.90;;
77226;SDS011;66234;47.642;19.144;2023-06-22T10:55:26;9.13;;;5.77;;
77226;SDS011;66234;47.642;19.144;2023-06-22T10:58:41;7.80;;;5.57;;
77226;SDS011;66234;47.642;19.144;2023-06-22T11:01:45;9.20;;;6.28;;
77226;SDS011;66234;47.642;19.144;2023-06-22T11:04:48;11.75;;;5.88;;
77226;SDS011;66234;47.642;19.144;2023-06-22T11:07:50;9.45;;;6.00;;
77226;SDS011;66234;47.642;19.144;2023-06-22T11:10:53;9.63;;;5.93;;
77226;SDS011;66234;47.642;19.144;2023-06-22T11:13:56;9.98;;;6.28;;
77226;SDS011;66234;47.642;19.144;2023-06-22T11:16:58;13.93;;;5.53;;
77226;SDS011;66234;47.642;19.144;2023-06-22T11:20:01;13.45;;;5.97;;
77226;SDS011;66234;47.642;19.144;2023-06-22T11:23:07;7.75;;;5.03;;
77226;SDS011;66234;47.642;19.144;2023-06-22T11:26:10;10.00;;;5.70;;
77226;SDS011;66234;47.642;19.144;2023-06-22T11:29:12;9.13;;;5.90;;
77226;SDS011;66234;47.642;19.144;2023-06-22T11:32:33;9.90;;;6.05;;
77226;SDS011;66234;47.642;19.144;2023-06-22T11:35:36;6.72;;;5.55;;
77226;SDS011;66234;47.642;19.144;2023-06-22T11:38:39;8.90;;;5.25;;
77226;SDS011;66234;47.642;19.144;2023-06-22T11:41:41;9.93;;;5.53;;
77226;SDS011;66234;47.642;19.144;2023-06-22T11:44:44;9.25;;;6.95;;
77226;SDS011;66234;47.642;19.144;2023-06-22T11:47:47;9.65;;;6.22;;
77226;SDS011;66234;47.642;19.144;2023-06-22T11:50:50;10.60;;;6.45;;
77226;SDS011;66234;47.642;19.144;2023-06-22T11:53:53;10.32;;;6.35;;
77226;SDS011;66234;47.642;19.144;2023-06-22T11:56:56;8.43;;;6.33;;
77226;SDS011;66234;47.642;19.144;2023-06-22T11:59:59;9.30;;;7.13;;
77226;SDS011;66234;47.642;19.144;2023-06-22T12:03:02;10.05;;;6.93;;
77226;SDS011;66234;47.642;19.144;2023-06-22T12:06:07;10.38;;;6.82;;
77226;SDS011;66234;47.642;19.144;2023-06-22T12:09:10;9.90;;;7.15;;
77226;SDS011;66234;47.642;19.144;2023-06-22T12:12:12;12.47;;;6.73;;
77226;SDS011;66234;47.642;19.144;2023-06-22T12:15:15;11.50;;;7.57;;
77226;SDS011;66234;47.642;19.144;2023-06-22T12:18:18;12.35;;;7.95;;
77226;SDS011;66234;47.642;19.144;2023-06-22T12:21:22;8.50;;;7.55;;
77226;SDS011;66234;47.642;19.144;2023-06-22T12:24:25;17.58;;;8.57;;
77226;SDS011;66234;47.642;19.144;2023-06-22T12:27:28;9.40;;;7.07;;
77226;SDS011;66234;47.642;19.144;2023-06-22T12:30:33;8.85;;;7.13;;
77226;SDS011;66234;47.642;19.144;2023-06-22T12:33:35;9.68;;;8.05;;
77226;SDS011;66234;47.642;19.144;2023-06-22T12:36:38;7.55;;;6.70;;
77226;SDS011;66234;47.642;19.144;2023-06-22T12:39:40;10.38;;;7.18;;
77226;SDS011;66234;47.642;19.144;2023-06-22T12:42:44;8.67;;;6.83;;
77226;SDS011;66234;47.642;19.144;2023-06-22T12:45:47;11.65;;;6.93;;
77226;SDS011;66234;47.642;19.144;2023-06-22T12:48:50;9.90;;;7.47;;
77226;SDS011;66234;47.642;19.144;2023-06-22T12:51:53;10.82;;;7.78;;
77226;SDS011;66234;47.642;19.144;2023-06-22T12:54:55;9.38;;;8.32;;
77226;SDS011;66234;47.642;19.144;2023-06-22T12:57:58;12.73;;;8.03;;
77226;SDS011;66234;47.642;19.144;2023-06-22T13:01:00;10.43;;;8.07;;
77226;SDS011;66234;47.642;19.144;2023-06-22T13:04:03;12.27;;;8.63;;
77226;SDS011;66234;47.642;19.144;2023-06-22T13:07:06;10.23;;;8.50;;
77226;SDS011;66234;47.642;19.144;2023-06-22T13:10:24;9.25;;;8.40;;
77226;SDS011;66234;47.642;19.144;2023-06-22T13:13:26;11.60;;;8.90;;
77226;SDS011;66234;47.642;19.144;2023-06-22T13:16:29;10.68;;;8.32;;
77226;SDS011;66234;47.642;19.144;2023-06-22T13:19:32;10.15;;;9.15;;
77226;SDS011;66234;47.642;19.144;2023-06-22T13:22:35;10.00;;;9.00;;
77226;SDS011;66234;47.642;19.144;2023-06-22T13:25:45;10.63;;;9.55;;
77226;SDS011;66234;47.642;19.144;2023-06-22T13:28:47;10.87;;;8.77;;
77226;SDS011;66234;47.642;19.144;2023-06-22T13:31:50;10.30;;;8.65;;
77226;SDS011;66234;47.642;19.144;2023-06-22T13:34:53;10.20;;;8.20;;
77226;SDS011;66234;47.642;19.144;2023-06-22T13:37:56;10.48;;;8.15;;
77226;SDS011;66234;47.642;19.144;2023-06-22T13:40:58;15.05;;;8.52;;
77226;SDS011;66234;47.642;19.144;2023-06-22T13:44:01;9.57;;;8.50;;
77226;SDS011;66234;47.642;19.144;2023-06-22T13:47:04;10.48;;;8.52;;
77226;SDS011;66234;47.642;19.144;2023-06-22T13:50:08;14.88;;;8.80;;
77226;SDS011;66234;47.642;19.144;2023-06-22T13:53:11;10.13;;;8.98;;
77226;SDS011;66234;47.642;19.144;2023-06-22T13:56:14;10.25;;;8.38;;
77226;SDS011;66234;47.642;19.144;2023-06-22T13:59:17;9.93;;;8.90;;
77226;SDS011;66234;47.642;19.144;2023-06-22T14:02:20;10.38;;;9.05;;
77226;SDS011;66234;47.642;19.144;2023-06-22T14:05:23;10.02;;;8.50;;
77226;SDS011;66234;47.642;19.144;2023-06-22T14:08:25;12.73;;;9.15;;
77226;SDS011;66234;47.642;19.144;2023-06-22T14:11:43;12.68;;;8.98;;
77226;SDS011;66234;47.642;19.144;2023-06-22T14:14:45;10.33;;;9.30;;
77226;SDS011;66234;47.642;19.144;2023-06-22T14:17:48;11.23;;;9.27;;
77226;SDS011;66234;47.642;19.144;2023-06-22T14:20:53;12.05;;;9.27;;
77226;SDS011;66234;47.642;19.144;2023-06-22T14:23:56;13.65;;;8.32;;
77226;SDS011;66234;47.642;19.144;2023-06-22T14:26:59;12.73;;;9.93;;
77226;SDS011;66234;47.642;19.144;2023-06-22T14:30:05;10.07;;;9.17;;
77226;SDS011;66234;47.642;19.144;2023-06-22T14:33:08;11.52;;;8.07;;
77226;SDS011;66234;47.642;19.144;2023-06-22T14:36:11;10.32;;;7.88;;
77226;SDS011;66234;47.642;19.144;2023-06-22T14:39:18;11.80;;;9.40;;
77226;SDS011;66234;47.642;19.144;2023-06-22T14:42:22;12.52;;;8.30;;
77226;SDS011;66234;47.642;19.144;2023-06-22T14:45:25;12.63;;;8.07;;
77226;SDS011;66234;47.642;19.144;2023-06-22T14:48:28;11.63;;;8.32;;
77226;SDS011;66234;47.642;19.144;2023-06-22T14:51:31;10.73;;;9.50;;
77226;SDS011;66234;47.642;19.144;2023-06-22T14:54:33;11.40;;;8.52;;
77226;SDS011;66234;47.642;19.144;2023-06-22T14:57:36;17.70;;;8.18;;
77226;SDS011;66234;47.642;19.144;2023-06-22T15:00:39;9.00;;;8.13;;
77226;SDS011;66234;47.642;19.144;2023-06-22T15:03:42;9.57;;;8.52;;
77226;SDS011;66234;47.642;19.144;2023-06-22T15:06:44;13.38;;;8.57;;
77226;SDS011;66234;47.642;19.144;2023-06-22T15:09:47;10.13;;;8.55;;
77226;SDS011;66234;47.642;19.144;2023-06-22T15:12:49;9.77;;;8.73;;
77226;SDS011;66234;47.642;19.144;2023-06-22T15:15:52;10.00;;;8.93;;
77226;SDS011;66234;47.642;19.144;2023-06-22T15:18:55;10.57;;;8.68;;
77226;SDS011;66234;47.642;19.144;2023-06-22T15:21:58;9.82;;;8.85;;
77226;SDS011;66234;47.642;19.144;2023-06-22T15:25:00;11.20;;;8.20;;
77226;SDS011;66234;47.642;19.144;2023-06-22T15:28:05;10.57;;;7.97;;
77226;SDS011;66234;47.642;19.144;2023-06-22T15:31:08;11.07;;;8.73;;
77226;SDS011;66234;47.642;19.144;2023-06-22T15:34:12;11.18;;;8.38;;
77226;SDS011;66234;47.642;19.144;2023-06-22T15:37:16;13.85;;;9.07;;
77226;SDS011;66234;47.642;19.144;2023-06-22T15:40:19;10.82;;;9.50;;
77226;SDS011;66234;47.642;19.144;2023-06-22T15:43:22;10.68;;;9.45;;
77226;SDS011;66234;47.642;19.144;2023-06-22T15:46:24;8.90;;;8.10;;
77226;SDS011;66234;47.642;19.144;2023-06-22T15:49:27;8.70;;;7.63;;
77226;SDS011;66234;47.642;19.144;2023-06-22T15:52:30;8.75;;;7.85;;
77226;SDS011;66234;47.642;19.144;2023-06-22T15:55:32;8.43;;;7.60;;
77226;SDS011;66234;47.642;19.144;2023-06-22T15:58:37;14.32;;;8.35;;
77226;SDS011;66234;47.642;19.144;2023-06-22T16:01:41;8.27;;;7.43;;
77226;SDS011;66234;47.642;19.144;2023-06-22T16:04:44;10.48;;;7.85;;
77226;SDS011;66234;47.642;19.144;2023-06-22T16:07:47;10.98;;;8.15;;
77226;SDS011;66234;47.642;19.144;2023-06-22T16:10:49;10.05;;;7.65;;
77226;SDS011;66234;47.642;19.144;2023-06-22T16:13:52;12.73;;;7.53;;
77226;SDS011;66234;47.642;19.144;2023-06-22T16:16:54;11.73;;;7.20;;
77226;SDS011;66234;47.642;19.144;2023-06-22T16:19:57;12.05;;;7.90;;
77226;SDS011;66234;47.642;19.144;2023-06-22T16:23:01;12.52;;;7.70;;
77226;SDS011;66234;47.642;19.144;2023-06-22T16:26:04;8.20;;;7.40;;
77226;SDS011;66234;47.642;19.144;2023-06-22T16:29:07;13.25;;;7.47;;
77226;SDS011;66234;47.642;19.144;2023-06-22T16:32:10;10.00;;;7.50;;
77226;SDS011;66234;47.642;19.144;2023-06-22T16:35:13;10.90;;;7.30;;
77226;SDS011;66234;47.642;19.144;2023-06-22T16:38:16;9.02;;;7.25;;
77226;SDS011;66234;47.642;19.144;2023-06-22T16:41:18;8.25;;;7.53;;
77226;SDS011;66234;47.642;19.144;2023-06-22T16:44:21;9.13;;;7.68;;
77226;SDS011;66234;47.642;19.144;2023-06-22T16:47:24;11.03;;;6.90;;
77226;SDS011;66234;47.642;19.144;2023-06-22T16:50:26;11.77;;;7.18;;
77226;SDS011;66234;47.642;19.144;2023-06-22T16:53:29;11.45;;;7.68;;
77226;SDS011;66234;47.642;19.144;2023-06-22T16:56:32;14.35;;;7.20;;
77226;SDS011;66234;47.642;19.144;2023-06-22T16:59:35;12.82;;;6.95;;
77226;SDS011;66234;47.642;19.144;2023-06-22T17:02:56;8.57;;;6.30;;
77226;SDS011;66234;47.642;19.144;2023-06-22T17:06:02;8.57;;;6.20;;
77226;SDS011;66234;47.642;19.144;2023-06-22T17:09:06;9.38;;;6.60;;
77226;SDS011;66234;47.642;19.144;2023-06-22T17:12:14;8.13;;;5.63;;
77226;SDS011;66234;47.642;19.144;2023-06-22T17:15:17;10.63;;;5.82;;
77226;SDS011;66234;47.642;19.144;2023-06-22T17:18:22;9.97;;;5.20;;
77226;SDS011;66234;47.642;19.144;2023-06-22T17:21:27;9.95;;;7.10;;
77226;SDS011;66234;47.642;19.144;2023-06-22T17:24:32;14.15;;;7.63;;
77226;SDS011;66234;47.642;19.144;2023-06-22T17:27:35;8.23;;;6.80;;
77226;SDS011;66234;47.642;19.144;2023-06-22T17:30:38;11.02;;;5.90;;
77226;SDS011;66234;47.642;19.144;2023-06-22T17:33:41;16.30;;;6.67;;
77226;SDS011;66234;47.642;19.144;2023-06-22T17:39:53;13.35;;;6.15;;
77226;SDS011;66234;47.642;19.144;2023-06-22T17:43:02;12.80;;;6.70;;
77226;SDS011;66234;47.642;19.144;2023-06-22T17:46:09;10.45;;;7.50;;
77226;SDS011;66234;47.642;19.144;2023-06-22T17:49:12;10.17;;;7.13;;
77226;SDS011;66234;47.642;19.144;2023-06-22T17:52:18;15.60;;;7.25;;
77226;SDS011;66234;47.642;19.144;2023-06-22T17:55:21;10.45;;;7.10;;
77226;SDS011;66234;47.642;19.144;2023-06-22T17:58:24;10.55;;;7.40;;
77226;SDS011;66234;47.642;19.144;2023-06-22T18:01:31;11.02;;;7.10;;
77226;SDS011;66234;47.642;19.144;2023-06-22T18:04:37;11.10;;;6.93;;
77226;SDS011;66234;47.642;19.144;2023-06-22T18:07:40;13.05;;;9.00;;
77226;SDS011;66234;47.642;19.144;2023-06-22T18:10:43;21.75;;;9.45;;